createdAt,value
2018-02-04T00:01:50.293Z,8.90
2018-02-04T00:04:17.805Z,11.13
2018-02-04T00:06:45.324Z,8.17
2018-02-04T00:09:12.834Z,8.33
2018-02-04T00:11:40.367Z,8.50
2018-02-04T00:14:07.873Z,9.90
2018-02-04T00:16:35.394Z,8.97
2018-02-04T00:19:02.966Z,8.60
2018-02-04T00:21:30.449Z,9.87
2018-02-04T00:23:57.961Z,8.33
2018-02-04T00:26:25.471Z,8.23
2018-02-04T00:28:52.984Z,8.17
2018-02-04T00:31:20.523Z,6.07
2018-02-04T00:33:48.031Z,6.50
2018-02-04T00:36:15.553Z,7.37
2018-02-04T00:38:43.061Z,6.70
2018-02-04T00:41:10.575Z,7.27
2018-02-04T00:43:38.106Z,7.70
2018-02-04T00:46:05.620Z,8.40
2018-02-04T00:48:33.141Z,8.47
2018-02-04T00:51:00.644Z,6.67
2018-02-04T00:53:28.160Z,7.30
2018-02-04T00:55:55.673Z,7.27
2018-02-04T00:58:23.182Z,6.93
2018-02-04T01:00:50.692Z,5.87
2018-02-04T01:03:18.201Z,5.27
2018-02-04T01:05:45.706Z,5.70
2018-02-04T01:08:13.226Z,5.30
2018-02-04T01:10:40.741Z,5.83
2018-02-04T01:13:08.265Z,7.63
2018-02-04T01:15:35.776Z,6.23
2018-02-04T01:18:03.288Z,6.00
2018-02-04T01:20:30.806Z,7.80
2018-02-04T01:22:58.321Z,6.83
2018-02-04T01:25:25.832Z,6.47
2018-02-04T01:27:53.342Z,7.97
2018-02-04T01:30:20.859Z,9.83
2018-02-04T01:32:48.371Z,7.23
2018-02-04T01:35:15.885Z,6.37
2018-02-04T01:37:43.405Z,6.93
2018-02-04T01:40:10.918Z,7.87
2018-02-04T01:42:38.436Z,7.97
2018-02-04T01:45:05.957Z,8.83
2018-02-04T01:47:33.490Z,7.20
2018-02-04T01:50:00.997Z,6.23
2018-02-04T01:52:28.513Z,8.27
2018-02-04T01:54:56.033Z,6.37
2018-02-04T01:57:23.544Z,5.27
2018-02-04T01:59:51.053Z,6.73
2018-02-04T02:02:18.571Z,5.77
2018-02-04T02:04:46.085Z,5.77
2018-02-04T02:07:13.596Z,6.23
2018-02-04T02:09:41.125Z,5.57
2018-02-04T02:12:08.642Z,5.40
2018-02-04T02:14:36.150Z,5.17
2018-02-04T02:17:03.674Z,5.03
2018-02-04T02:19:31.181Z,5.83
2018-02-04T02:21:58.701Z,6.67
2018-02-04T02:24:26.223Z,5.67
2018-02-04T02:26:53.741Z,5.07
2018-02-04T02:29:21.258Z,5.87
2018-02-04T02:31:48.788Z,5.87
2018-02-04T02:34:16.301Z,5.20
2018-02-04T02:36:43.828Z,6.43
2018-02-04T02:39:11.348Z,5.97
2018-02-04T02:41:38.902Z,5.30
2018-02-04T02:44:06.421Z,7.07
2018-02-04T02:46:33.933Z,5.40
2018-02-04T02:49:01.452Z,5.10
2018-02-04T02:51:28.981Z,5.37
2018-02-04T02:53:56.498Z,5.63
2018-02-04T02:56:24.001Z,6.57
2018-02-04T02:58:51.512Z,5.60
2018-02-04T03:01:19.024Z,3.97
2018-02-04T03:03:46.549Z,4.53
2018-02-04T03:06:14.062Z,5.83
2018-02-04T03:08:41.582Z,4.50
2018-02-04T03:11:09.097Z,4.20
2018-02-04T03:13:36.614Z,4.53
2018-02-04T03:16:04.140Z,5.00
2018-02-04T03:18:31.659Z,5.07
2018-02-04T03:20:59.171Z,5.53
2018-02-04T03:23:26.676Z,4.47
2018-02-04T03:25:54.195Z,4.07
2018-02-04T03:28:21.704Z,3.83
2018-02-04T03:30:49.231Z,4.87
2018-02-04T03:33:16.749Z,7.40
2018-02-04T03:35:44.255Z,4.10
2018-02-04T03:38:11.784Z,4.40
2018-02-04T03:40:39.290Z,4.37
2018-02-04T03:43:06.803Z,4.10
2018-02-04T03:45:34.304Z,4.20
2018-02-04T03:48:01.842Z,5.80
2018-02-04T03:50:29.356Z,5.30
2018-02-04T03:52:56.877Z,6.23
2018-02-04T03:55:24.517Z,5.43
2018-02-04T03:57:52.043Z,5.10
2018-02-04T04:00:19.620Z,6.00
2018-02-04T04:02:47.132Z,6.30
2018-02-04T04:05:14.660Z,5.10
2018-02-04T04:07:42.172Z,6.67
2018-02-04T04:10:09.776Z,4.17
2018-02-04T04:12:37.292Z,5.20
2018-02-04T04:15:04.895Z,4.40
2018-02-04T04:17:32.420Z,5.30
2018-02-04T04:19:59.938Z,6.27
2018-02-04T04:22:27.469Z,5.23
2018-02-04T04:24:54.993Z,6.37
2018-02-04T04:27:22.517Z,5.80
2018-02-04T04:29:50.057Z,6.80
2018-02-04T04:32:17.607Z,6.10
2018-02-04T04:34:45.119Z,6.67
2018-02-04T04:37:12.641Z,5.77
2018-02-04T04:39:40.153Z,6.60
2018-02-04T04:42:07.669Z,5.73
2018-02-04T04:44:35.324Z,4.87
2018-02-04T04:47:02.841Z,6.83
2018-02-04T04:49:30.385Z,6.40
2018-02-04T04:51:57.913Z,5.20
2018-02-04T04:54:25.430Z,7.87
2018-02-04T04:56:52.945Z,6.43
2018-02-04T04:59:20.464Z,8.00
2018-02-04T05:01:47.977Z,5.73
2018-02-04T05:04:15.494Z,6.30
2018-02-04T05:06:43.010Z,7.20
2018-02-04T05:09:10.542Z,7.53
2018-02-04T05:11:38.061Z,7.70
2018-02-04T05:14:05.580Z,8.60
2018-02-04T05:16:33.095Z,7.97
2018-02-04T05:19:00.616Z,8.47
2018-02-04T05:21:28.125Z,7.23
2018-02-04T05:23:55.639Z,8.17
2018-02-04T05:26:23.167Z,6.90
2018-02-04T05:28:50.684Z,6.53
2018-02-04T05:31:18.200Z,7.43
2018-02-04T05:33:45.712Z,7.57
2018-02-04T05:36:13.220Z,8.23
2018-02-04T05:38:40.738Z,7.47
2018-02-04T05:41:08.253Z,7.83
2018-02-04T05:43:35.765Z,8.20
2018-02-04T05:46:03.393Z,8.20
2018-02-04T05:48:30.903Z,6.50
2018-02-04T05:50:58.407Z,7.00
2018-02-04T05:53:25.924Z,8.47
2018-02-04T05:55:53.438Z,9.53
2018-02-04T05:58:20.965Z,7.67
2018-02-04T06:00:48.476Z,8.30
2018-02-04T06:03:16.003Z,8.83
2018-02-04T06:05:43.539Z,9.60
2018-02-04T06:08:11.068Z,11.10
2018-02-04T06:10:38.683Z,9.57
2018-02-04T06:13:06.344Z,13.60
2018-02-04T06:15:33.900Z,12.67
2018-02-04T06:18:01.426Z,9.33
2018-02-04T06:20:28.949Z,10.53
2018-02-04T06:22:56.484Z,8.97
2018-02-04T06:25:23.997Z,8.70
2018-02-04T06:27:51.514Z,9.20
2018-02-04T06:30:19.032Z,9.60
2018-02-04T06:32:46.548Z,10.13
2018-02-04T06:35:14.066Z,11.63
2018-02-04T06:37:41.577Z,12.00
2018-02-04T06:40:09.124Z,12.93
2018-02-04T06:42:36.632Z,11.67
2018-02-04T06:45:04.139Z,13.10
2018-02-04T06:47:31.662Z,14.37
2018-02-04T06:49:59.202Z,15.70
2018-02-04T06:52:26.790Z,15.10
2018-02-04T06:54:54.313Z,14.00
2018-02-04T06:57:21.841Z,15.17
2018-02-04T06:59:49.371Z,14.00
2018-02-04T07:02:16.889Z,11.17
2018-02-04T07:04:44.406Z,11.77
2018-02-04T07:07:11.934Z,10.53
2018-02-04T07:09:39.459Z,12.00
2018-02-04T07:12:06.988Z,13.57
2018-02-04T07:14:34.513Z,13.57
2018-02-04T07:17:02.042Z,14.80
2018-02-04T07:19:29.574Z,12.43
2018-02-04T07:21:57.112Z,10.37
2018-02-04T07:24:24.666Z,12.53
2018-02-04T07:26:52.208Z,14.03
2018-02-04T07:29:19.715Z,9.97
2018-02-04T07:31:47.242Z,13.30
2018-02-04T07:34:14.763Z,11.93
2018-02-04T07:36:42.288Z,10.17
2018-02-04T07:39:09.809Z,9.47
2018-02-04T07:41:37.325Z,9.37
2018-02-04T07:44:04.841Z,10.33
2018-02-04T07:46:32.368Z,10.07
2018-02-04T07:48:59.888Z,11.77
2018-02-04T07:51:27.399Z,9.63
2018-02-04T07:53:54.939Z,10.10
2018-02-04T07:56:22.473Z,11.37
2018-02-04T07:58:49.994Z,11.13
2018-02-04T08:01:17.514Z,11.93
2018-02-04T08:03:45.034Z,10.97
2018-02-04T08:06:12.560Z,10.37
2018-02-04T08:08:40.097Z,11.40
2018-02-04T08:11:07.622Z,11.47
2018-02-04T08:13:35.136Z,10.20
2018-02-04T08:16:02.701Z,10.70
2018-02-04T08:18:30.236Z,9.30
2018-02-04T08:20:57.740Z,10.27
2018-02-04T08:23:25.261Z,10.97
2018-02-04T08:25:52.835Z,9.83
2018-02-04T08:28:20.332Z,8.80
2018-02-04T08:30:47.840Z,9.60
2018-02-04T08:33:15.350Z,8.90
2018-02-04T08:35:42.868Z,10.97
2018-02-04T08:38:10.377Z,11.43
2018-02-04T08:40:37.906Z,8.50
2018-02-04T08:43:05.413Z,9.13
2018-02-04T08:45:32.915Z,8.03
2018-02-04T08:48:00.415Z,7.80
2018-02-04T08:50:27.925Z,8.67
2018-02-04T08:52:55.436Z,7.97
2018-02-04T08:55:22.940Z,7.23
2018-02-04T08:57:50.462Z,9.57
2018-02-04T09:00:17.974Z,7.67
2018-02-04T09:02:45.486Z,9.77
2018-02-04T09:05:13.001Z,6.97
2018-02-04T09:07:40.515Z,5.87
2018-02-04T09:10:08.034Z,10.97
2018-02-04T09:12:35.542Z,8.07
2018-02-04T09:15:03.054Z,9.07
2018-02-04T09:17:30.560Z,9.40
2018-02-04T09:19:58.069Z,9.67
2018-02-04T09:22:25.616Z,12.30
2018-02-04T09:24:53.141Z,17.20
2018-02-04T09:27:20.655Z,18.07
2018-02-04T09:29:48.177Z,24.53
2018-02-04T09:32:15.697Z,28.03
2018-02-04T09:34:43.213Z,25.67
2018-02-04T09:37:10.724Z,28.33
2018-02-04T09:39:38.243Z,22.50
2018-02-04T09:42:05.763Z,24.47
2018-02-04T09:44:33.288Z,24.33
2018-02-04T09:47:00.811Z,22.80
2018-02-04T09:49:28.325Z,22.23
2018-02-04T09:51:55.836Z,23.57
2018-02-04T09:54:23.344Z,22.83
2018-02-04T09:56:50.861Z,22.53
2018-02-04T09:59:18.372Z,23.70
2018-02-04T10:01:45.896Z,22.00
2018-02-04T10:04:13.408Z,21.03
2018-02-04T10:06:40.933Z,22.23
2018-02-04T10:09:08.452Z,19.70
2018-02-04T10:11:35.970Z,18.87
2018-02-04T10:14:03.487Z,19.23
2018-02-04T10:16:31.006Z,18.47
2018-02-04T10:18:58.522Z,17.00
2018-02-04T10:21:26.033Z,16.00
2018-02-04T10:23:53.548Z,14.60
2018-02-04T10:26:21.089Z,14.40
2018-02-04T10:28:48.611Z,13.23
2018-02-04T10:31:16.131Z,11.50
2018-02-04T10:33:43.662Z,11.83
2018-02-04T10:36:11.191Z,12.40
2018-02-04T10:38:38.763Z,11.37
2018-02-04T10:41:06.280Z,10.67
2018-02-04T10:43:33.794Z,12.87
2018-02-04T10:46:01.322Z,13.97
2018-02-04T10:48:28.839Z,14.67
2018-02-04T10:51:02.002Z,14.70
2018-02-04T10:53:40.310Z,11.63
2018-02-04T10:56:07.836Z,9.43
2018-02-04T10:58:35.345Z,9.57
2018-02-04T11:01:02.856Z,7.73
2018-02-04T11:03:30.368Z,8.60
2018-02-04T11:05:57.886Z,7.83
2018-02-04T11:08:25.402Z,7.70
2018-02-04T11:10:52.921Z,8.23
2018-02-04T11:13:20.432Z,7.03
2018-02-04T11:15:47.944Z,7.37
2018-02-04T11:18:15.453Z,7.80
2018-02-04T11:20:42.974Z,7.63
2018-02-04T11:23:10.496Z,9.10
2018-02-04T11:25:38.007Z,8.07
2018-02-04T11:28:05.537Z,8.13
2018-02-04T11:30:33.078Z,8.40
2018-02-04T11:33:00.578Z,7.67
2018-02-04T11:35:28.129Z,8.70
2018-02-04T11:37:55.610Z,6.60
2018-02-04T11:40:23.126Z,6.87
2018-02-04T11:42:50.763Z,6.00
2018-02-04T11:45:18.280Z,6.97
2018-02-04T11:47:45.809Z,8.40
2018-02-04T11:50:13.317Z,6.13
2018-02-04T11:52:40.838Z,6.90
2018-02-04T11:55:08.336Z,5.93
2018-02-04T11:57:35.844Z,5.10
2018-02-04T12:00:03.352Z,5.43
2018-02-04T12:02:30.855Z,5.53
2018-02-04T12:04:58.369Z,6.63
2018-02-04T12:07:25.870Z,5.53
2018-02-04T12:09:53.392Z,6.00
2018-02-04T12:12:20.894Z,5.73
2018-02-04T12:14:48.405Z,6.83
2018-02-04T12:17:15.912Z,6.17
2018-02-04T12:19:43.430Z,5.93
2018-02-04T12:22:10.938Z,3.97
2018-02-04T12:24:38.460Z,4.57
2018-02-04T12:27:05.970Z,4.23
2018-02-04T12:29:33.481Z,6.23
2018-02-04T12:32:01.002Z,8.40
2018-02-04T12:34:28.505Z,6.50
2018-02-04T12:36:56.861Z,7.77
2018-02-04T12:39:24.376Z,7.23
2018-02-04T12:41:51.893Z,6.67
2018-02-04T12:44:19.397Z,6.57
2018-02-04T12:46:46.936Z,5.67
2018-02-04T12:49:14.441Z,6.50
2018-02-04T12:51:41.948Z,5.37
2018-02-04T12:54:09.457Z,6.43
2018-02-04T12:56:36.964Z,7.37
2018-02-04T12:59:04.459Z,5.97
2018-02-04T13:01:31.972Z,5.83
2018-02-04T13:03:59.476Z,4.90
2018-02-04T13:06:27.000Z,4.60
2018-02-04T13:08:54.521Z,5.30
2018-02-04T13:11:22.021Z,6.37
2018-02-04T13:13:49.532Z,5.67
2018-02-04T13:16:17.052Z,5.47
2018-02-04T13:18:44.621Z,5.53
2018-02-04T13:21:12.102Z,5.20
2018-02-04T13:23:39.626Z,5.60
2018-02-04T13:26:07.147Z,4.93
2018-02-04T13:28:34.772Z,5.13
2018-02-04T13:31:02.243Z,7.57
2018-02-04T13:33:29.765Z,6.03
2018-02-04T13:35:57.273Z,5.70
2018-02-04T13:38:24.789Z,5.70
2018-02-04T13:40:52.332Z,5.50
2018-02-04T13:43:19.844Z,8.63
2018-02-04T13:45:47.354Z,6.60
2018-02-04T13:48:14.873Z,6.30
2018-02-04T13:50:42.380Z,8.30
2018-02-04T13:53:09.893Z,5.60
2018-02-04T13:55:37.398Z,8.13
2018-02-04T13:58:04.918Z,6.87
2018-02-04T14:00:32.463Z,5.97
2018-02-04T14:02:59.970Z,6.17
2018-02-04T14:05:27.537Z,5.57
2018-02-04T14:07:55.028Z,5.87
2018-02-04T14:10:22.558Z,6.30
2018-02-04T14:12:50.060Z,7.30
2018-02-04T14:15:17.570Z,6.93
2018-02-04T14:17:45.082Z,7.77
2018-02-04T14:20:12.584Z,7.33
2018-02-04T14:22:40.092Z,7.63
2018-02-04T14:25:07.617Z,7.97
2018-02-04T14:27:35.126Z,6.63
2018-02-04T14:30:02.628Z,8.07
2018-02-04T14:32:30.146Z,8.37
2018-02-04T14:34:57.661Z,8.93
2018-02-04T14:37:25.178Z,7.13
2018-02-04T14:39:52.735Z,6.73
2018-02-04T14:42:20.220Z,7.87
2018-02-04T14:44:47.717Z,9.00
2018-02-04T14:47:15.226Z,8.23
2018-02-04T14:49:42.745Z,8.43
2018-02-04T14:52:10.258Z,9.77
2018-02-04T14:54:37.774Z,7.40
2018-02-04T14:57:05.314Z,7.17
2018-02-04T14:59:32.819Z,8.43
2018-02-04T15:02:00.331Z,9.60
2018-02-04T15:04:27.844Z,8.03
2018-02-04T15:06:55.362Z,7.87
2018-02-04T15:09:22.874Z,9.57
2018-02-04T15:11:50.381Z,7.90
2018-02-04T15:14:17.885Z,9.03
2018-02-04T15:16:45.393Z,8.30
2018-02-04T15:19:12.897Z,9.60
2018-02-04T15:21:40.413Z,8.83
2018-02-04T15:24:07.917Z,12.27
2018-02-04T15:26:35.433Z,10.20
2018-02-04T15:29:02.936Z,9.97
2018-02-04T15:31:30.463Z,11.70
2018-02-04T15:33:57.966Z,14.60
2018-02-04T15:36:25.477Z,13.27
2018-02-04T15:38:53.005Z,12.80
2018-02-04T15:41:20.531Z,12.77
2018-02-04T15:43:48.044Z,15.30
2018-02-04T15:46:15.554Z,12.90
2018-02-04T15:48:43.065Z,12.37
2018-02-04T15:51:10.569Z,15.07
2018-02-04T15:53:38.080Z,12.37
2018-02-04T15:56:05.588Z,12.70
2018-02-04T15:58:33.096Z,10.07
2018-02-04T16:01:00.605Z,10.87
2018-02-04T16:03:28.124Z,9.77
2018-02-04T16:05:55.641Z,11.43
2018-02-04T16:08:23.161Z,10.73
2018-02-04T16:10:50.709Z,11.10
2018-02-04T16:13:18.224Z,11.03
2018-02-04T16:15:45.831Z,11.47
2018-02-04T16:18:13.371Z,12.40
2018-02-04T16:20:40.930Z,11.10
2018-02-04T16:23:08.433Z,13.93
2018-02-04T16:25:35.955Z,13.97
2018-02-04T16:28:03.477Z,13.57
2018-02-04T16:30:31.009Z,13.67
2018-02-04T16:32:58.538Z,16.57
2018-02-04T16:35:26.069Z,16.80
2018-02-04T16:37:53.663Z,16.63
2018-02-04T16:40:21.182Z,14.83
2018-02-04T16:42:48.706Z,14.90
2018-02-04T16:45:16.229Z,17.47
2018-02-04T16:47:43.759Z,16.63
2018-02-04T16:50:11.287Z,15.00
2018-02-04T16:52:38.814Z,16.93
2018-02-04T16:55:06.332Z,19.23
2018-02-04T16:57:33.864Z,19.03
2018-02-04T17:00:01.382Z,16.30
2018-02-04T17:02:28.925Z,21.13
2018-02-04T17:04:56.449Z,19.57
2018-02-04T17:07:23.964Z,24.07
2018-02-04T17:09:51.487Z,24.50
2018-02-04T17:12:19.017Z,25.53
2018-02-04T17:14:46.537Z,24.73
2018-02-04T17:17:14.066Z,26.70
2018-02-04T17:19:41.592Z,29.73
2018-02-04T17:22:09.101Z,27.90
2018-02-04T17:24:36.636Z,29.10
2018-02-04T17:27:04.162Z,31.70
2018-02-04T17:29:31.676Z,31.27
2018-02-04T17:31:59.190Z,31.93
2018-02-04T17:34:26.710Z,32.00
2018-02-04T17:36:54.231Z,35.53
2018-02-04T17:39:21.782Z,34.30
2018-02-04T17:41:49.316Z,35.30
2018-02-04T17:44:16.835Z,33.50
2018-02-04T17:46:44.344Z,34.43
2018-02-04T17:49:11.985Z,33.43
2018-02-04T17:51:39.496Z,38.77
2018-02-04T17:54:07.025Z,34.87
2018-02-04T17:56:34.538Z,35.50
2018-02-04T17:59:02.070Z,36.57
2018-02-04T18:01:29.582Z,39.50
2018-02-04T18:03:57.123Z,34.53
2018-02-04T18:06:24.665Z,37.07
2018-02-04T18:08:52.192Z,41.17
2018-02-04T18:11:19.721Z,33.07
2018-02-04T18:13:47.252Z,36.97
2018-02-04T18:16:14.770Z,41.10
2018-02-04T18:18:42.308Z,39.43
2018-02-04T18:21:09.834Z,39.63
2018-02-04T18:23:37.361Z,35.03
2018-02-04T18:26:04.890Z,41.37
2018-02-04T18:28:32.405Z,39.93
2018-02-04T18:30:59.936Z,43.20
2018-02-04T18:33:27.450Z,47.33
2018-02-04T18:35:54.997Z,48.10
2018-02-04T18:38:22.521Z,49.03
2018-02-04T18:40:50.043Z,50.13
2018-02-04T18:43:17.563Z,46.00
2018-02-04T18:45:45.089Z,48.70
2018-02-04T18:48:12.621Z,49.63
2018-02-04T18:50:40.146Z,58.30
2018-02-04T18:53:07.669Z,55.60
2018-02-04T18:55:35.189Z,53.20
2018-02-04T18:58:02.749Z,61.47
2018-02-04T19:00:30.272Z,56.70
2018-02-04T19:02:57.790Z,55.17
2018-02-04T19:05:25.428Z,54.83
2018-02-04T19:07:52.988Z,56.20
2018-02-04T19:10:20.515Z,56.27
2018-02-04T19:12:48.049Z,55.67
2018-02-04T19:15:15.567Z,60.97
2018-02-04T19:17:43.087Z,54.10
2018-02-04T19:20:10.609Z,56.17
2018-02-04T19:22:38.150Z,63.27
2018-02-04T19:25:05.676Z,59.70
2018-02-04T19:27:33.194Z,62.93
2018-02-04T19:30:00.713Z,56.07
2018-02-04T19:32:28.233Z,62.40
2018-02-04T19:34:55.762Z,55.10
2018-02-04T19:37:23.291Z,63.90
2018-02-04T19:39:50.817Z,59.33
2018-02-04T19:42:18.350Z,63.97
2018-02-04T19:44:45.873Z,60.73
2018-02-04T19:47:13.428Z,59.97
2018-02-04T19:49:40.960Z,61.40
2018-02-04T19:52:08.478Z,58.03
2018-02-04T19:54:36.003Z,61.77
2018-02-04T19:57:03.532Z,56.43
2018-02-04T19:59:31.062Z,60.03
2018-02-04T20:01:58.584Z,58.63
2018-02-04T20:04:26.137Z,61.13
2018-02-04T20:06:53.666Z,68.17
2018-02-04T20:09:21.204Z,65.50
2018-02-04T20:11:48.725Z,62.20
2018-02-04T20:14:16.243Z,59.80
2018-02-04T20:16:43.780Z,58.30
2018-02-04T20:19:11.299Z,67.70
2018-02-04T20:21:38.826Z,54.70
2018-02-04T20:24:06.364Z,65.57
2018-02-04T20:26:33.888Z,63.23
2018-02-04T20:29:01.406Z,59.57
2018-02-04T20:31:28.931Z,57.40
2018-02-04T20:34:08.102Z,60.57
2018-02-04T20:36:35.625Z,58.07
2018-02-04T20:39:03.164Z,60.67
2018-02-04T20:41:30.695Z,56.83
2018-02-04T20:43:58.225Z,60.03
2018-02-04T20:46:25.789Z,57.20
2018-02-04T20:48:53.381Z,58.90
2018-02-04T20:51:20.880Z,57.00
2018-02-04T20:53:48.419Z,54.53
2018-02-04T20:56:15.957Z,55.43
2018-02-04T20:58:43.469Z,56.13
2018-02-04T21:01:11.009Z,59.60
2018-02-04T21:03:38.535Z,59.47
2018-02-04T21:06:06.066Z,58.60
2018-02-04T21:08:33.588Z,62.10
2018-02-04T21:11:01.111Z,54.17
2018-02-04T21:13:28.637Z,51.30
2018-02-04T21:15:56.166Z,65.03
2018-02-04T21:18:23.688Z,56.67
2018-02-04T21:20:51.201Z,61.00
2018-02-04T21:23:18.720Z,57.33
2018-02-04T21:25:46.245Z,56.37
2018-02-04T21:28:13.765Z,52.80
2018-02-04T21:30:41.313Z,52.37
2018-02-04T21:33:08.833Z,54.13
2018-02-04T21:35:36.353Z,58.77
2018-02-04T21:38:03.875Z,52.10
2018-02-04T21:40:31.407Z,52.03
2018-02-04T21:42:58.944Z,52.67
2018-02-04T21:45:26.486Z,50.90
2018-02-04T21:47:54.014Z,50.67
2018-02-04T21:50:21.527Z,48.70
2018-02-04T21:52:49.129Z,56.17
2018-02-04T21:55:16.694Z,51.30
2018-02-04T21:57:44.230Z,52.33
2018-02-04T22:00:11.984Z,56.17
2018-02-04T22:02:39.360Z,51.90
2018-02-04T22:05:06.879Z,56.83
2018-02-04T22:07:34.415Z,55.53
2018-02-04T22:10:01.947Z,58.17
2018-02-04T22:12:29.494Z,53.27
2018-02-04T22:14:57.029Z,57.03
2018-02-04T22:17:24.571Z,60.50
2018-02-04T22:19:52.118Z,57.87
2018-02-04T22:22:19.633Z,56.90
2018-02-04T22:24:47.148Z,58.33
2018-02-04T22:27:14.781Z,57.23
2018-02-04T22:29:42.297Z,58.37
2018-02-04T22:32:09.889Z,54.53
2018-02-04T22:34:37.449Z,63.63
2018-02-04T22:37:04.984Z,52.60
2018-02-04T22:39:32.499Z,55.40
2018-02-04T22:42:00.021Z,61.20
2018-02-04T22:44:27.576Z,57.53
2018-02-04T22:46:55.251Z,62.07
2018-02-04T22:49:22.817Z,61.05
2018-02-04T22:51:50.340Z,54.83
2018-02-04T22:54:17.861Z,59.27
2018-02-04T22:56:45.383Z,56.70
2018-02-04T22:59:12.897Z,61.00
2018-02-04T23:01:40.413Z,56.93
2018-02-04T23:04:07.933Z,58.13
2018-02-04T23:06:35.522Z,59.10
2018-02-04T23:09:03.054Z,59.03
2018-02-04T23:11:30.657Z,56.60
2018-02-04T23:13:58.312Z,55.40
2018-02-04T23:16:25.834Z,61.30
2018-02-04T23:18:53.357Z,58.63
2018-02-04T23:21:20.882Z,61.57
2018-02-04T23:23:48.397Z,58.67
2018-02-04T23:26:15.908Z,55.30
2018-02-04T23:28:43.452Z,58.37
2018-02-04T23:31:10.973Z,61.77
2018-02-04T23:33:38.488Z,60.20
2018-02-04T23:36:05.999Z,70.60
2018-02-04T23:38:33.542Z,71.90
2018-02-04T23:41:01.062Z,75.10
2018-02-04T23:43:28.613Z,70.83
2018-02-04T23:45:56.130Z,77.67
2018-02-04T23:48:23.653Z,73.33
2018-02-04T23:50:51.170Z,74.17
2018-02-04T23:53:18.744Z,74.20
2018-02-04T23:55:46.268Z,66.37
2018-02-04T23:58:13.803Z,71.37
